Time;durP1;ratioP1;P1;durP2;ratioP2;P2;SDS_P1;SDS_P2;PMS_P1;PMS_P2;Temp;Humidity;BMP_temperature;BMP_pressure;BME280_temperature;BME280_humidity;BME280_pressure;Samples;Min_cycle;Max_cycle;Signal;HPM_P1;HPM_P2
2023/10/01 00:01:40;;;;;;;4.73;2.37;;;;;;;18.98;57.66;102161.22;4975850;28;96667;-58
2023/10/01 00:04:07;;;;;;;3.03;2.23;;;;;;;18.95;57.61;102170.66;4976778;28;96859;-58
2023/10/01 00:06:34;;;;;;;2.70;2.40;;;;;;;18.93;57.51;102164.81;4976115;28;96854;-58
2023/10/01 00:09:00;;;;;;;3.33;2.40;;;;;;;18.90;57.89;102157.47;4975420;28;97279;-58
2023/10/01 00:11:26;;;;;;;2.80;2.33;;;;;;;18.88;57.81;102168.41;4972645;28;97225;-58
2023/10/01 00:13:51;;;;;;;2.73;2.50;;;;;;;18.87;57.74;102166.88;4973811;28;97335;-59
2023/10/01 00:16:17;;;;;;;1.67;1.57;;;;;;;18.84;57.84;102184.63;4976672;28;99235;-59
2023/10/01 00:18:42;;;;;;;3.63;2.27;;;;;;;18.83;57.96;102185.91;4976290;28;97120;-58
2023/10/01 00:21:07;;;;;;;2.30;2.10;;;;;;;18.80;57.93;102180.59;4976870;28;96983;-59
2023/10/01 00:23:33;;;;;;;4.07;2.70;;;;;;;18.78;57.84;102177.56;4973798;28;98339;-58
2023/10/01 00:25:58;;;;;;;4.17;2.87;;;;;;;18.77;57.95;102173.25;4973527;28;97542;-59
2023/10/01 00:28:24;;;;;;;3.00;2.40;;;;;;;18.75;57.82;102182.13;4975243;28;96876;-59
2023/10/01 00:30:49;;;;;;;3.73;2.33;;;;;;;18.73;57.78;102169.97;4976816;28;97208;-59
2023/10/01 00:33:15;;;;;;;2.87;2.57;;;;;;;18.69;58.08;102161.88;4973556;28;99574;-59
2023/10/01 00:35:41;;;;;;;3.33;2.37;;;;;;;18.69;57.85;102161.88;4973505;28;97136;-59
2023/10/01 00:38:10;;;;;;;3.43;2.60;;;;;;;18.67;58.07;102161.63;4971793;28;96907;-59
2023/10/01 00:40:36;;;;;;;3.20;2.90;;;;;;;18.63;58.20;102161.16;4974496;28;97331;-59
2023/10/01 00:43:03;;;;;;;3.60;2.50;;;;;;;18.62;58.20;102171.53;4975996;28;97242;-59
2023/10/01 00:45:30;;;;;;;2.77;2.33;;;;;;;18.60;58.16;102168.50;4978178;28;97190;-59
2023/10/01 00:47:59;;;;;;;5.63;2.90;;;;;;;18.58;58.23;102156.34;4976199;28;98032;-59
2023/10/01 00:50:24;;;;;;;4.43;2.33;;;;;;;18.54;58.20;102151.00;4973665;28;97230;-58
2023/10/01 00:52:52;;;;;;;3.13;2.40;;;;;;;18.53;58.40;102143.16;4975654;28;97137;-59
2023/10/01 00:55:20;;;;;;;2.90;2.23;;;;;;;18.50;58.14;102138.63;4975825;28;98471;-59
2023/10/01 00:57:46;;;;;;;4.20;2.60;;;;;;;18.46;58.15;102133.31;4980376;28;96829;-58
2023/10/01 01:00:16;;;;;;;4.70;2.67;;;;;;;18.45;58.15;102137.38;4974635;28;97131;-59
2023/10/01 01:02:56;;;;;;;4.50;2.27;;;;;;;18.41;58.30;102130.53;4976248;28;96629;-59
2023/10/01 01:05:23;;;;;;;4.77;2.60;;;;;;;18.40;58.20;102124.19;4974948;28;97257;-59
2023/10/01 01:07:50;;;;;;;6.87;2.70;;;;;;;18.37;58.17;102118.88;4975939;28;96970;-59
2023/10/01 01:10:16;;;;;;;3.77;2.47;;;;;;;18.37;58.09;102124.47;4974206;28;96726;-59
2023/10/01 01:12:45;;;;;;;8.33;2.63;;;;;;;18.36;58.22;102134.84;4973887;28;97456;-59
2023/10/01 01:15:12;;;;;;;3.00;2.40;;;;;;;18.33;58.11;102146.22;4976352;28;97098;-58
2023/10/01 01:17:38;;;;;;;4.93;2.03;;;;;;;18.29;58.15;102137.38;4975508;28;97008;-59
2023/10/01 01:20:09;;;;;;;2.40;2.10;;;;;;;18.27;58.26;102139.91;4975755;28;97447;-58
2023/10/01 01:22:37;;;;;;;3.93;2.63;;;;;;;18.26;58.42;102141.22;4974598;28;97879;-58
2023/10/01 01:25:10;;;;;;;2.73;2.50;;;;;;;18.26;58.38;102163.50;4974969;28;97229;-58
2023/10/01 01:27:38;;;;;;;4.30;2.10;;;;;;;18.24;58.55;102143.75;4976877;28;97153;-58
2023/10/01 01:30:08;;;;;;;2.60;2.40;;;;;;;18.26;58.57;102130.06;4976240;28;97455;-59
2023/10/01 01:32:36;;;;;;;3.93;2.17;;;;;;;18.26;58.55;102133.59;4975529;28;97123;-58
2023/10/01 01:35:02;;;;;;;2.73;2.23;;;;;;;18.27;58.67;102159.44;4972536;28;96894;-59
2023/10/01 01:37:36;;;;;;;2.30;2.00;;;;;;;18.27;58.58;102162.97;4973580;28;97160;-58
2023/10/01 01:40:09;;;;;;;4.03;2.60;;;;;;;18.27;58.67;102171.34;4975274;28;97107;-59
2023/10/01 01:42:35;;;;;;;2.97;2.70;;;;;;;18.27;58.52;102165.00;4972562;28;97881;-59
2023/10/01 01:45:18;;;;;;;2.90;2.30;;;;;;;18.28;58.54;102161.69;4974718;28;97218;-58
2023/10/01 01:47:44;;;;;;;2.43;2.20;;;;;;;18.25;58.59;102151.59;4974095;28;96833;-58
2023/10/01 01:50:21;;;;;;;3.13;2.30;;;;;;;18.25;58.65;102126.50;4976452;28;96637;-58
2023/10/01 01:52:49;;;;;;;3.80;2.60;;;;;;;18.25;58.69;102122.97;4973579;28;97851;-59
2023/10/01 01:55:29;;;;;;;2.60;2.40;;;;;;;18.25;58.52;102118.16;4974745;28;97630;-58
2023/10/01 02:00:35;;;;;;;3.60;2.80;;;;;;;18.25;58.74;102142.47;4972472;28;97008;-58
2023/10/01 02:03:14;;;;;;;6.97;2.40;;;;;;;18.25;58.56;102131.31;4977029;28;96929;-58
2023/10/01 02:05:41;;;;;;;2.40;2.10;;;;;;;18.22;58.59;102132.31;4972465;28;97121;-58
2023/10/01 02:08:10;;;;;;;2.30;1.70;;;;;;;18.23;58.62;102126.25;4974214;28;96835;-58
2023/10/01 02:10:45;;;;;;;3.97;3.10;;;;;;;18.22;58.77;102121.19;4973369;28;97116;-58
2023/10/01 02:13:13;;;;;;;6.50;2.60;;;;;;;18.19;58.57;102117.41;4974637;28;97360;-58
2023/10/01 02:15:38;;;;;;;2.93;2.50;;;;;;;18.17;58.57;102117.16;4972111;28;96778;-58
2023/10/01 02:18:04;;;;;;;4.33;2.90;;;;;;;18.13;58.47;102113.84;4976841;28;97617;-58
2023/10/01 02:20:33;;;;;;;5.40;2.87;;;;;;;18.10;58.49;102114.91;4974668;28;96999;-58
2023/10/01 02:23:02;;;;;;;3.30;2.73;;;;;;;18.08;58.70;102125.03;4973302;28;98682;-58
2023/10/01 02:25:37;;;;;;;3.67;3.30;;;;;;;18.06;58.53;102128.31;4975174;28;96717;-58
2023/10/01 02:28:22;;;;;;;2.93;2.40;;;;;;;18.05;58.59;102135.16;4976229;28;96709;-58
2023/10/01 02:30:48;;;;;;;4.10;2.80;;;;;;;18.04;58.73;102135.66;4966512;28;97165;-58
2023/10/01 02:33:17;;;;;;;2.90;2.30;;;;;;;18.04;58.79;102127.31;4972026;28;97457;-58
2023/10/01 02:35:46;;;;;;;3.77;2.50;;;;;;;18.02;58.51;102121.50;4970397;28;96884;-58
2023/10/01 02:40:57;;;;;;;2.50;2.30;;;;;;;17.94;58.65;102126.81;4972549;28;96996;-58
2023/10/01 02:43:33;;;;;;;4.27;2.17;;;;;;;17.94;58.71;102119.22;4972928;28;97370;-58
2023/10/01 02:46:04;;;;;;;3.43;2.40;;;;;;;17.92;58.70;102123.78;4972101;28;97267;-58
2023/10/01 02:48:30;;;;;;;3.20;2.60;;;;;;;17.90;58.66;102115.94;4976676;28;97159;-58
2023/10/01 02:50:56;;;;;;;3.27;2.60;;;;;;;17.89;58.99;102108.06;4972293;28;96862;-58
2023/10/01 02:53:23;;;;;;;4.47;2.80;;;;;;;17.88;58.99;102095.44;4975021;28;97099;-58
2023/10/01 02:55:51;;;;;;;3.07;1.90;;;;;;;17.85;58.89;102105.56;4974222;28;98185;-58
2023/10/01 02:58:18;;;;;;;4.93;2.40;;;;;;;17.85;59.00;102105.56;4974294;28;96967;-58
2023/10/01 03:00:47;;;;;;;2.70;2.50;;;;;;;17.85;59.00;102104.78;4971528;28;97709;-58
2023/10/01 03:03:17;;;;;;;4.53;2.73;;;;;;;17.82;58.90;102101.00;4973695;28;97151;-58
2023/10/01 03:05:46;;;;;;;3.53;2.53;;;;;;;17.81;58.83;102107.84;4972248;28;97177;-59
2023/10/01 03:08:25;;;;;;;2.93;2.30;;;;;;;17.82;58.94;102097.47;4975417;28;97199;-58
2023/10/01 03:10:52;;;;;;;5.07;2.80;;;;;;;17.81;59.10;102104.28;4973985;28;97285;-58
2023/10/01 03:13:20;;;;;;;4.73;2.67;;;;;;;17.79;59.03;102104.03;4974162;28;97198;-58
2023/10/01 03:16:33;;;;;;;3.13;2.70;;;;;;;17.79;59.10;102109.59;4975149;28;97432;-58
2023/10/01 03:18:34;;;;;;;3.33;2.37;;;;;;;17.77;59.01;102107.34;4972848;28;97248;-58
2023/10/01 03:21:07;;;;;;;3.93;2.13;;;;;;;17.77;59.23;102112.91;4973438;28;96980;-58
2023/10/01 03:23:33;;;;;;;3.47;2.47;;;;;;;17.77;59.27;102118.47;4973172;28;97770;-58
2023/10/01 03:31:24;;;;;;;2.10;1.97;;;;;;;17.70;59.24;102107.09;4974474;28;96723;-59
2023/10/01 03:33:58;;;;;;;3.13;2.83;;;;;;;17.71;59.13;102114.91;4976795;28;97299;-58
2023/10/01 03:36:25;;;;;;;4.40;2.47;;;;;;;17.71;59.17;102109.34;4970837;28;97217;-58
2023/10/01 03:38:57;;;;;;;2.87;2.50;;;;;;;17.73;59.26;102106.06;4970792;28;97225;-58
2023/10/01 03:41:24;;;;;;;3.27;2.63;;;;;;;17.71;59.25;102109.34;4972717;28;96994;-58
2023/10/01 03:43:54;;;;;;;2.43;2.23;;;;;;;17.71;59.25;102109.34;4974530;28;97747;-58
2023/10/01 03:46:26;;;;;;;4.93;2.67;;;;;;;17.71;59.37;102109.34;4975572;28;97159;-58
2023/10/01 03:54:19;;;;;;;2.43;2.23;;;;;;;17.71;59.29;102103.03;4969024;28;97259;-59
2023/10/01 03:56:55;;;;;;;3.47;2.43;;;;;;;17.70;59.28;102107.84;4973080;28;97294;-58
2023/10/01 03:59:22;;;;;;;2.57;2.30;;;;;;;17.69;59.27;102109.09;4970718;28;96775;-58
2023/10/01 04:02:00;;;;;;;4.53;2.70;;;;;;;17.67;59.18;102096.97;4974710;28;97190;-58
2023/10/01 04:05:21;;;;;;;2.40;2.20;;;;;;;17.66;59.09;102095.44;4970569;28;97749;-58
2023/10/01 04:07:17;;;;;;;2.73;2.53;;;;;;;17.61;59.08;102088.63;4975474;28;97028;-58
2023/10/01 04:09:46;;;;;;;3.13;2.80;;;;;;;17.59;59.11;102088.34;4971246;28;97042;-58
2023/10/01 04:12:19;;;;;;;2.50;2.07;;;;;;;17.57;59.14;102093.69;4971611;28;97166;-58
2023/10/01 04:14:52;;;;;;;3.07;2.30;;;;;;;17.53;59.28;102104.31;4974860;28;96622;-58
2023/10/01 04:17:18;;;;;;;4.17;2.33;;;;;;;17.56;59.55;102096.97;4976050;28;97625;-58
2023/10/01 04:19:49;;;;;;;3.87;2.63;;;;;;;17.57;59.51;102101.25;4975241;28;97019;-58
2023/10/01 04:22:18;;;;;;;5.90;2.50;;;;;;;17.54;59.50;102094.69;4976227;28;97123;-58
2023/10/01 04:24:44;;;;;;;4.20;3.10;;;;;;;17.53;59.42;102097.97;4974663;28;97704;-58
2023/10/01 04:27:23;;;;;;;2.50;2.30;;;;;;;17.50;59.40;102105.31;4977086;28;97132;-58
2023/10/01 04:29:57;;;;;;;3.03;2.40;;;;;;;17.46;59.19;102099.22;4977883;28;97055;-59
2023/10/01 04:32:28;;;;;;;2.97;2.17;;;;;;;17.41;59.44;102094.38;4975060;28;97340;-58
2023/10/01 04:34:58;;;;;;;4.27;2.83;;;;;;;17.37;59.36;102099.44;4973395;28;97355;-58
2023/10/01 04:37:40;;;;;;;3.50;2.60;;;;;;;17.35;59.46;102096.41;4974360;28;97145;-58
2023/10/01 04:42:52;;;;;;;3.23;2.50;;;;;;;17.31;59.60;102098.69;4973645;28;96867;-58
2023/10/01 04:45:23;;;;;;;2.20;1.97;;;;;;;17.34;59.67;102099.72;4975581;28;97623;-58
2023/10/01 04:48:02;;;;;;;4.23;2.60;;;;;;;17.33;59.83;102112.84;4975539;28;97231;-58
2023/10/01 04:50:29;;;;;;;2.90;2.60;;;;;;;17.33;59.66;102095.41;4976048;28;97006;-58
2023/10/01 04:52:59;;;;;;;4.80;2.50;;;;;;;17.32;59.64;102099.47;4976019;28;97175;-58
2023/10/01 04:55:30;;;;;;;3.47;2.43;;;;;;;17.31;59.70;102087.56;4973825;28;97387;-58
2023/10/01 04:57:57;;;;;;;3.20;2.83;;;;;;;17.30;59.68;102097.16;4975885;28;97769;-58
2023/10/01 05:00:25;;;;;;;2.30;2.10;;;;;;;17.29;59.68;102101.22;4977000;28;97124;-58
2023/10/01 05:02:51;;;;;;;3.10;2.20;;;;;;;17.27;59.79;102098.19;4971461;28;100307;-58
2023/10/01 05:05:26;;;;;;;3.80;2.40;;;;;;;17.25;59.72;102090.31;4974735;28;97382;-58
2023/10/01 05:07:56;;;;;;;3.00;2.67;;;;;;;17.20;59.60;102090.31;4972637;28;97098;-58
2023/10/01 05:10:22;;;;;;;3.20;2.17;;;;;;;17.16;59.71;102096.16;4974723;28;96967;-58
2023/10/01 05:12:47;;;;;;;3.93;3.00;;;;;;;17.11;59.68;102102.47;4974344;28;96653;-58
2023/10/01 05:15:24;;;;;;;2.33;2.20;;;;;;;17.09;59.61;102101.44;4976363;28;97376;-58
2023/10/01 05:17:50;;;;;;;2.97;2.13;;;;;;;17.05;59.57;102100.94;4972631;28;97237;-58
2023/10/01 05:20:15;;;;;;;3.70;2.40;;;;;;;17.02;59.69;102099.13;4974804;28;97961;-58
2023/10/01 05:22:46;;;;;;;3.93;2.93;;;;;;;16.98;59.81;102102.16;4971846;28;97820;-58
2023/10/01 05:25:18;;;;;;;2.60;2.20;;;;;;;16.99;59.80;102108.50;4973246;28;97088;-58
2023/10/01 05:27:44;;;;;;;3.90;2.40;;;;;;;16.98;59.96;102112.53;4973193;28;97650;-58
2023/10/01 05:30:34;;;;;;;3.43;2.47;;;;;;;16.95;60.05;102108.72;4973029;28;97136;-58
2023/10/01 05:32:55;;;;;;;2.73;2.27;;;;;;;16.94;59.93;102104.44;4973791;28;99194;-58
2023/10/01 05:35:22;;;;;;;3.30;2.80;;;;;;;16.92;60.06;102101.41;4981125;28;97835;-58
2023/10/01 05:37:49;;;;;;;2.97;2.60;;;;;;;16.90;60.00;102097.59;4974843;28;97094;-58
2023/10/01 05:40:17;;;;;;;3.33;2.40;;;;;;;16.89;60.05;102102.41;4972974;28;97194;-58
2023/10/01 05:42:47;;;;;;;7.40;3.00;;;;;;;16.87;59.99;102093.03;4972994;28;97237;-58
2023/10/01 05:45:18;;;;;;;2.63;2.40;;;;;;;16.85;59.90;102092.78;4973449;28;96989;-58
2023/10/01 05:48:01;;;;;;;3.40;3.00;;;;;;;16.82;60.05;102094.53;4975392;28;97812;-58
2023/10/01 05:50:29;;;;;;;2.83;2.50;;;;;;;16.81;60.07;102095.81;4972805;28;96891;-58
2023/10/01 05:52:55;;;;;;;2.60;2.33;;;;;;;16.82;60.08;102093.78;4976681;28;97204;-58
2023/10/01 05:55:23;;;;;;;4.17;2.63;;;;;;;16.83;60.13;102100.84;4975317;28;97311;-58
2023/10/01 05:57:50;;;;;;;2.97;2.50;;;;;;;16.84;60.14;102088.50;4974009;28;97586;-58
2023/10/01 06:00:18;;;;;;;2.93;2.50;;;;;;;16.84;60.12;102085.72;4973602;28;97332;-58
2023/10/01 06:02:47;;;;;;;4.53;2.90;;;;;;;16.85;60.16;102076.09;4974033;28;96801;-58
2023/10/01 06:05:33;;;;;;;2.90;2.70;;;;;;;16.87;60.12;102063.22;4974170;28;97056;-58
2023/10/01 06:07:59;;;;;;;4.03;2.77;;;;;;;16.87;60.07;102060.44;4977439;28;97157;-58
2023/10/01 06:10:35;;;;;;;4.10;3.17;;;;;;;16.89;60.02;102059.94;4977490;28;96706;-58
2023/10/01 06:13:01;;;;;;;3.57;2.67;;;;;;;16.87;60.10;102059.66;4973593;28;97349;-58
2023/10/01 06:15:29;;;;;;;5.33;3.00;;;;;;;16.88;59.95;102066.75;4972393;28;97823;-58
2023/10/01 06:17:55;;;;;;;6.30;2.37;;;;;;;16.88;60.07;102067.53;4973347;28;97611;-57
2023/10/01 06:20:23;;;;;;;3.27;2.53;;;;;;;16.88;60.08;102075.88;4975929;28;97151;-58
2023/10/01 06:22:49;;;;;;;7.80;3.00;;;;;;;16.90;59.96;102095.59;4972689;28;96896;-58
2023/10/01 06:25:15;;;;;;;2.50;2.20;;;;;;;16.91;60.00;102104.66;4974055;28;96756;-58
2023/10/01 06:27:41;;;;;;;3.30;2.33;;;;;;;16.96;59.98;102107.47;4975478;28;96696;-58
2023/10/01 06:30:08;;;;;;;3.53;2.57;;;;;;;17.01;60.17;102097.63;4974366;28;97114;-58
2023/10/01 06:32:36;;;;;;;3.20;2.13;;;;;;;17.06;60.16;102113.56;4973489;28;96881;-58
2023/10/01 06:35:02;;;;;;;4.83;2.30;;;;;;;17.11;60.27;102102.47;4972829;28;100293;-58
2023/10/01 06:37:50;;;;;;;2.87;2.50;;;;;;;17.17;60.25;102099.66;4976003;28;96709;-58
2023/10/01 06:40:31;;;;;;;4.57;2.37;;;;;;;17.21;60.35;102100.94;4976631;28;97502;-58
2023/10/01 06:42:59;;;;;;;2.63;2.20;;;;;;;17.22;60.34;102105.25;4974239;28;97197;-58
2023/10/01 06:45:44;;;;;;;4.13;2.37;;;;;;;17.35;60.33;102104.00;4975287;28;97416;-58
2023/10/01 06:48:09;;;;;;;3.30;2.30;;;;;;;17.44;60.45;102112.09;4974562;28;97561;-58
2023/10/01 06:50:46;;;;;;;3.80;2.60;;;;;;;17.52;60.44;102115.94;4974114;28;97137;-58
2023/10/01 06:53:13;;;;;;;3.80;2.57;;;;;;;17.58;60.27;102122.28;4972723;28;97016;-58
2023/10/01 06:55:38;;;;;;;3.73;2.40;;;;;;;17.64;60.27;102123.78;4976209;28;97092;-58
2023/10/01 06:58:07;;;;;;;2.70;2.37;;;;;;;17.72;60.26;102119.22;4976423;28;97229;-58
2023/10/01 07:00:36;;;;;;;4.37;2.70;;;;;;;17.78;60.35;102125.53;4972790;28;97082;-58
2023/10/01 07:03:19;;;;;;;3.83;2.23;;;;;;;17.85;60.02;102124.28;4977010;28;96865;-58
2023/10/01 07:05:46;;;;;;;2.90;2.50;;;;;;;17.91;60.06;102116.66;4972599;28;97946;-58
2023/10/01 07:08:14;;;;;;;3.97;3.57;;;;;;;17.98;60.02;102111.34;4979150;28;100184;-59
2023/10/01 07:10:40;;;;;;;4.23;2.67;;;;;;;18.06;59.98;102111.63;4955420;28;99285;-58
2023/10/01 07:13:05;;;;;;;3.73;2.43;;;;;;;18.15;59.85;102107.78;4973138;28;97509;-59
2023/10/01 07:15:37;;;;;;;3.13;2.60;;;;;;;18.23;59.88;102119.94;4974440;28;96936;-58
2023/10/01 07:18:15;;;;;;;3.83;2.40;;;;;;;18.29;59.83;102112.31;4973876;28;96868;-58
2023/10/01 07:20:44;;;;;;;3.83;2.80;;;;;;;18.36;59.86;102109.75;4974761;28;97180;-58
2023/10/01 07:23:11;;;;;;;4.00;3.07;;;;;;;18.42;59.45;102110.50;4972985;28;97509;-58
2023/10/01 07:25:42;;;;;;;3.30;2.80;;;;;;;18.45;59.36;102097.59;4973671;28;97304;-58
2023/10/01 07:28:18;;;;;;;3.70;2.57;;;;;;;18.50;59.34;102108.72;4975707;28;97060;-58
2023/10/01 07:30:45;;;;;;;4.10;2.73;;;;;;;18.55;58.97;102105.16;4970067;28;97561;-58
2023/10/01 07:33:16;;;;;;;2.50;2.27;;;;;;;18.60;58.99;102106.41;4972517;28;96946;-58
2023/10/01 07:35:44;;;;;;;4.27;3.03;;;;;;;18.66;59.01;102104.34;4974951;28;97321;-58
2023/10/01 07:38:15;;;;;;;4.27;3.00;;;;;;;18.70;59.04;102107.63;4971988;28;97140;-58
2023/10/01 07:40:57;;;;;;;3.27;2.97;;;;;;;18.75;58.83;102108.88;4974305;28;97172;-58
2023/10/01 07:43:26;;;;;;;8.23;2.73;;;;;;;18.80;58.78;102096.94;4973634;28;96737;-58
2023/10/01 07:45:56;;;;;;;2.80;2.47;;;;;;;18.85;58.56;102101.75;4972047;28;97332;-58
2023/10/01 07:48:23;;;;;;;3.67;3.10;;;;;;;18.91;58.40;102099.66;4975271;28;97323;-58
2023/10/01 07:50:51;;;;;;;3.77;2.80;;;;;;;19.00;58.50;102097.31;4977057;28;97207;-58
2023/10/01 07:53:18;;;;;;;3.40;3.00;;;;;;;19.10;58.30;102100.56;4975359;28;97161;-58
2023/10/01 07:55:46;;;;;;;4.03;2.77;;;;;;;19.14;58.15;102101.81;4975031;28;97424;-57
2023/10/01 07:58:24;;;;;;;4.70;2.90;;;;;;;19.16;58.20;102098.50;4976864;28;97865;-58
2023/10/01 08:00:59;;;;;;;4.90;3.30;;;;;;;19.20;57.85;102101.75;4978762;28;96729;-58
2023/10/01 08:06:05;;;;;;;2.93;2.73;;;;;;;19.28;57.70;102111.88;4974783;28;98176;-59
2023/10/01 08:08:37;;;;;;;2.70;2.50;;;;;;;19.31;57.64;102115.63;4976163;28;96827;-59
2023/10/01 08:11:55;;;;;;;4.50;2.77;;;;;;;19.37;57.73;102117.16;4977423;28;97532;-59
2023/10/01 08:13:57;;;;;;;2.60;2.40;;;;;;;19.45;57.54;102125.72;4972617;28;97651;-58
2023/10/01 08:16:24;;;;;;;8.90;3.57;;;;;;;19.49;57.59;102125.44;4969686;28;97822;-59
2023/10/01 08:18:57;;;;;;;3.33;2.43;;;;;;;19.57;57.22;102129.19;4981432;28;100663;-58
2023/10/01 08:21:36;;;;;;;2.73;2.50;;;;;;;19.65;57.32;102130.16;4980129;28;96849;-59
2023/10/01 08:24:09;;;;;;;4.03;2.97;;;;;;;19.74;57.22;102125.00;4980214;28;97560;-59
2023/10/01 08:26:49;;;;;;;6.30;2.87;;;;;;;19.83;57.10;102129.50;4976003;28;96944;-59
2023/10/01 08:29:15;;;;;;;3.33;2.37;;;;;;;19.85;57.08;102129.72;4969344;28;96979;-59
2023/10/01 08:32:08;;;;;;;3.63;2.80;;;;;;;19.90;56.86;102134.47;4973197;28;97285;-59
2023/10/01 08:34:28;;;;;;;2.93;2.70;;;;;;;19.90;56.84;102134.47;4970307;28;97070;-59
2023/10/01 08:37:06;;;;;;;4.40;2.70;;;;;;;19.92;56.58;102129.16;4975184;28;97240;-59
2023/10/01 08:39:47;;;;;;;6.83;3.10;;;;;;;19.93;56.48;102130.66;4974206;28;96801;-57
2023/10/01 08:42:16;;;;;;;3.80;2.90;;;;;;;19.90;56.54;102126.09;4967502;28;98598;-59
2023/10/01 08:44:51;;;;;;;5.93;3.00;;;;;;;19.90;56.41;102140.06;4973652;28;97848;-59
2023/10/01 08:47:28;;;;;;;3.33;2.40;;;;;;;19.87;56.75;102136.31;4974748;28;97270;-60
2023/10/01 08:50:15;;;;;;;4.73;2.63;;;;;;;19.86;56.95;102145.19;4975370;28;97191;-58
2023/10/01 08:52:52;;;;;;;3.23;2.87;;;;;;;19.85;56.69;102143.69;4976254;28;96952;-57
2023/10/01 08:55:20;;;;;;;3.07;2.30;;;;;;;19.85;56.64;102149.28;4974973;28;96732;-58
2023/10/01 08:57:46;;;;;;;4.23;2.43;;;;;;;19.90;56.68;102142.88;4972805;28;97143;-57
2023/10/01 09:00:29;;;;;;;5.23;2.70;;;;;;;19.92;56.75;102145.91;4973178;28;108911;-59
2023/10/01 09:02:55;;;;;;;7.80;3.10;;;;;;;19.96;56.59;102144.34;4974281;28;96731;-59
2023/10/01 09:05:25;;;;;;;3.70;2.60;;;;;;;19.96;56.63;102135.94;4975386;28;97251;-59
2023/10/01 09:10:39;;;;;;;3.40;2.30;;;;;;;20.00;56.67;102132.88;4974605;28;96714;-59
2023/10/01 09:13:05;;;;;;;5.43;2.90;;;;;;;20.12;56.83;102132.25;4972442;28;97154;-59
2023/10/01 09:15:38;;;;;;;5.20;2.57;;;;;;;20.24;56.42;102126.56;4973998;28;97291;-57
2023/10/01 09:18:10;;;;;;;5.10;3.47;;;;;;;20.31;56.38;102121.16;4974782;28;97774;-58
2023/10/01 09:20:37;;;;;;;4.57;3.00;;;;;;;20.39;56.50;102119.28;4968732;27;97591;-58
2023/10/01 09:23:02;;;;;;;5.60;2.63;;;;;;;20.44;56.35;102117.72;4961483;28;97942;-58
2023/10/01 09:27:18;;;;;;;2.40;2.07;;;;;;;16.98;56.19;102120.97;5056254;27;97078;-58
2023/10/01 09:29:46;;;;;;;4.90;2.80;;;;;;;16.98;56.22;102130.13;5063095;27;97032;-58
2023/10/01 09:32:13;;;;;;;4.57;2.53;;;;;;;17.02;56.35;102127.00;5058627;27;97895;-58
2023/10/01 09:34:47;;;;;;;5.37;2.80;;;;;;;17.07;56.45;102138.16;5056999;27;97119;-58
2023/10/01 09:37:33;;;;;;;6.13;2.70;;;;;;;17.11;56.34;102130.22;5059345;27;97096;-58
2023/10/01 09:42:56;;;;;;;5.40;2.53;;;;;;;17.20;56.19;102134.69;5062313;27;97570;-58
2023/10/01 09:45:26;;;;;;;5.27;3.00;;;;;;;17.20;56.18;102127.06;5061744;27;97771;-58
2023/10/01 09:48:04;;;;;;;6.57;3.20;;;;;;;17.24;56.26;102130.31;5053848;27;96985;-58
2023/10/01 09:50:41;;;;;;;2.93;2.37;;;;;;;17.26;56.12;102130.53;5061499;27;97049;-58
2023/10/01 09:53:14;;;;;;;5.90;2.67;;;;;;;17.28;56.11;102118.81;5059969;27;98606;-58
2023/10/01 09:55:48;;;;;;;4.17;2.60;;;;;;;17.28;56.13;102119.56;5060725;27;96775;-57
2023/10/01 09:58:25;;;;;;;4.93;3.30;;;;;;;17.26;56.08;102112.97;5063409;27;97668;-58
2023/10/01 10:00:52;;;;;;;2.33;2.10;;;;;;;17.24;56.13;102115.56;5062884;27;96716;-58
2023/10/01 10:03:19;;;;;;;3.80;2.80;;;;;;;17.25;56.14;102098.22;5061252;27;97275;-58
2023/10/01 10:05:46;;;;;;;6.10;3.07;;;;;;;17.26;56.00;102102.56;5055326;27;101174;-58
2023/10/01 10:08:26;;;;;;;3.40;2.47;;;;;;;17.25;56.11;102092.63;5061250;27;97229;-57
2023/10/01 10:10:55;;;;;;;3.47;2.60;;;;;;;17.31;56.13;102101.72;5062704;27;96890;-57
2023/10/01 10:13:45;;;;;;;6.83;2.70;;;;;;;17.37;56.12;102101.66;5061545;27;96913;-58
2023/10/01 10:16:35;;;;;;;5.80;3.20;;;;;;;17.41;55.92;102099.28;5060396;27;97145;-58
2023/10/01 10:19:08;;;;;;;6.37;3.20;;;;;;;17.46;55.85;102106.09;5060093;27;97390;-57
2023/10/01 10:24:31;;;;;;;3.70;2.83;;;;;;;17.47;55.84;102102.03;5054486;27;96765;-58
2023/10/01 10:27:03;;;;;;;5.33;2.90;;;;;;;17.46;55.70;102106.09;5056727;27;97280;-58
2023/10/01 10:29:47;;;;;;;2.83;2.23;;;;;;;17.47;55.72;102107.63;5058921;27;96683;-58
2023/10/01 10:32:16;;;;;;;3.57;2.20;;;;;;;17.48;55.58;102101.50;5060261;27;96965;-57
2023/10/01 10:35:06;;;;;;;5.30;2.40;;;;;;;17.50;55.69;102103.75;5059982;27;97463;-57
2023/10/01 10:37:34;;;;;;;3.13;2.30;;;;;;;17.57;55.82;102100.38;5052624;27;97012;-58
2023/10/01 10:40:04;;;;;;;5.40;2.60;;;;;;;17.59;55.84;102106.97;5046102;27;97016;-57
2023/10/01 10:42:34;;;;;;;3.40;2.40;;;;;;;17.65;55.89;102104.06;5045131;27;97110;-58
2023/10/01 10:45:23;;;;;;;4.90;2.90;;;;;;;17.69;55.51;102105.28;5046205;27;97270;-58
2023/10/01 10:47:59;;;;;;;4.10;2.67;;;;;;;17.74;55.52;102095.28;5044694;27;97022;-58
2023/10/01 10:50:48;;;;;;;5.20;2.97;;;;;;;17.76;55.46;102090.66;5044989;27;97130;-57
2023/10/01 10:53:15;;;;;;;5.40;3.30;;;;;;;17.80;55.72;102099.50;5048335;27;96967;-58
2023/10/01 10:55:54;;;;;;;4.30;2.50;;;;;;;17.82;55.47;102088.53;5045322;27;97087;-58
2023/10/01 10:58:20;;;;;;;5.83;3.40;;;;;;;17.83;55.66;102089.28;5044829;27;97055;-57
2023/10/01 11:00:47;;;;;;;3.83;2.67;;;;;;;17.84;55.63;102091.56;5046494;27;96910;-57
2023/10/01 11:03:12;;;;;;;4.80;3.10;;;;;;;17.88;55.69;102089.19;5047655;27;97086;-58
2023/10/01 11:05:49;;;;;;;4.40;2.57;;;;;;;17.93;55.60;102085.56;5045082;27;96693;-58
2023/10/01 11:08:37;;;;;;;4.50;2.63;;;;;;;17.97;55.52;102096.47;5045093;27;96651;-58
2023/10/01 11:11:10;;;;;;;3.83;2.80;;;;;;;18.00;55.49;102101.75;5041798;27;96925;-58
2023/10/01 11:13:42;;;;;;;5.90;2.80;;;;;;;18.06;55.40;102090.44;5046037;27;97394;-57
2023/10/01 11:16:16;;;;;;;5.30;3.23;;;;;;;18.04;55.40;102107.78;5046308;27;97853;-58
2023/10/01 11:18:47;;;;;;;5.60;3.33;;;;;;;18.05;55.17;102095.31;5044281;27;97293;-58
2023/10/01 11:21:20;;;;;;;4.97;3.20;;;;;;;18.06;55.03;102101.63;5046709;27;97178;-58
2023/10/01 11:23:49;;;;;;;4.27;2.90;;;;;;;18.09;55.05;102094.97;5047744;27;97135;-58
2023/10/01 11:26:26;;;;;;;5.53;3.13;;;;;;;18.11;55.00;102092.38;5045976;27;97987;-57
2023/10/01 11:28:52;;;;;;;5.97;3.60;;;;;;;18.19;54.77;102087.66;5043991;27;97194;-57
2023/10/01 11:31:31;;;;;;;6.33;3.20;;;;;;;18.32;54.53;102078.53;5047754;27;96754;-58
2023/10/01 11:34:04;;;;;;;6.30;3.10;;;;;;;18.42;54.29;102082.44;5046770;27;97396;-56
2023/10/01 11:36:36;;;;;;;4.57;2.90;;;;;;;18.39;54.27;102084.28;5045130;27;97282;-57
2023/10/01 11:39:03;;;;;;;4.77;3.50;;;;;;;18.38;54.60;102079.97;5045516;27;97310;-59
2023/10/01 11:41:38;;;;;;;5.00;3.10;;;;;;;18.45;54.60;102072.97;5044539;27;97050;-59
2023/10/01 11:44:05;;;;;;;4.40;3.23;;;;;;;18.49;54.36;102071.38;5046465;27;97001;-58
2023/10/01 11:49:18;;;;;;;5.43;3.27;;;;;;;18.56;54.39;102064.38;5045891;27;96963;-58
2023/10/01 11:52:48;;;;;;;6.10;3.33;;;;;;;18.61;54.32;102061.44;5044119;27;97397;-57
2023/10/01 11:54:44;;;;;;;4.30;3.00;;;;;;;18.59;54.18;102066.84;5032985;27;96837;-57
2023/10/01 11:57:22;;;;;;;4.30;2.80;;;;;;;18.65;54.23;102066.72;5043552;27;97613;-56
2023/10/01 11:59:58;;;;;;;6.50;3.17;;;;;;;18.67;54.05;102059.28;5040359;27;97108;-55
2023/10/01 12:02:33;;;;;;;4.80;2.57;;;;;;;18.70;53.90;102058.19;5045013;27;96808;-57
2023/10/01 12:05:03;;;;;;;3.23;2.53;;;;;;;18.72;53.86;102055.63;5046619;27;97412;-57
2023/10/01 12:07:45;;;;;;;5.00;2.83;;;;;;;18.75;53.76;102048.94;5043037;27;99500;-57
2023/10/01 12:10:32;;;;;;;6.83;2.87;;;;;;;18.78;53.95;102053.44;5044477;27;97390;-56
2023/10/01 12:13:00;;;;;;;5.00;3.30;;;;;;;18.81;53.92;102041.16;5045552;27;97920;-56
2023/10/01 12:15:35;;;;;;;8.10;3.57;;;;;;;18.85;53.85;102040.81;5045098;27;96986;-57
2023/10/01 12:18:08;;;;;;;5.40;3.37;;;;;;;18.86;53.71;102051.50;5045021;27;97439;-58